Time;durP1;ratioP1;P1;durP2;ratioP2;P2;SDS_P1;SDS_P2;PMS_P1;PMS_P2;Temp;Humidity;BMP_temperature;BMP_pressure;BME280_temperature;BME280_humidity;BME280_pressure;Samples;Min_cycle;Max_cycle;Signal;HPM_P1;HPM_P2
2022/07/22 00:00:23;;;;;;;3.40;3.00;;;;;;;27.36;49.62;101004.22;5074793;28;20048;-75
2022/07/22 00:02:50;;;;;;;6.22;3.65;;;;;;;27.36;49.51;101005.06;5074767;28;20059;-76
2022/07/22 00:05:18;;;;;;;4.82;3.45;;;;;;;27.38;49.74;101009.47;5073694;28;20105;-75
2022/07/22 00:07:45;;;;;;;4.13;3.50;;;;;;;27.37;49.56;101014.06;5074661;28;20051;-76
2022/07/22 00:10:12;;;;;;;6.47;3.42;;;;;;;27.38;49.60;101007.59;5073381;28;20064;-76
2022/07/22 00:12:40;;;;;;;6.38;3.65;;;;;;;27.40;49.62;101016.41;5073982;28;20055;-75
2022/07/22 00:15:09;;;;;;;4.60;3.38;;;;;;;27.40;49.69;101016.41;5074361;28;20396;-76
2022/07/22 00:17:36;;;;;;;5.05;3.13;;;;;;;27.40;49.63;101004.69;5073110;28;20055;-76
2022/07/22 00:20:06;;;;;;;4.40;3.38;;;;;;;27.42;49.46;101005.34;5074660;28;20055;-76
2022/07/22 00:22:33;;;;;;;4.95;3.25;;;;;;;27.43;49.61;101012.47;5074252;28;20049;-76
2022/07/22 00:25:01;;;;;;;5.82;3.40;;;;;;;27.44;49.27;101020.47;5073634;28;20051;-76
2022/07/22 00:27:28;;;;;;;5.10;3.22;;;;;;;27.44;49.37;101011.47;5074014;28;20041;-76
2022/07/22 00:29:56;;;;;;;5.30;3.00;;;;;;;27.44;49.58;101014.19;5072476;28;20481;-75
2022/07/22 00:32:23;;;;;;;4.72;3.30;;;;;;;27.44;49.23;101008.75;5072172;28;20048;-76
2022/07/22 00:34:51;;;;;;;4.50;3.00;;;;;;;27.46;49.42;101015.69;5072285;28;20060;-76
2022/07/22 00:37:18;;;;;;;4.40;3.15;;;;;;;27.45;49.50;101005.84;5073547;28;20115;-76
2022/07/22 00:39:47;;;;;;;4.13;3.03;;;;;;;27.46;49.71;101007.53;5074258;28;20473;-76
2022/07/22 00:42:15;;;;;;;5.40;3.63;;;;;;;27.47;49.92;100998.34;5072546;28;20048;-76
2022/07/22 00:44:43;;;;;;;3.63;3.13;;;;;;;27.47;49.76;101001.09;5088796;28;20075;-76
2022/07/22 00:47:12;;;;;;;5.88;2.80;;;;;;;27.48;49.86;100999.19;5072201;28;20048;-76
2022/07/22 00:49:40;;;;;;;4.38;3.17;;;;;;;27.49;49.69;101001.72;5072307;28;20401;-76
2022/07/22 00:52:07;;;;;;;4.80;3.22;;;;;;;27.49;49.66;100998.16;5072028;28;20055;-76
2022/07/22 00:54:37;;;;;;;4.40;3.60;;;;;;;27.50;49.75;101008.00;5074246;28;20056;-76
2022/07/22 00:57:04;;;;;;;3.80;3.40;;;;;;;27.50;49.60;101002.56;5073379;28;20048;-75
2022/07/22 00:59:32;;;;;;;4.63;3.28;;;;;;;27.51;49.53;101005.13;5071915;28;20052;-75
2022/07/22 01:01:59;;;;;;;5.13;3.33;;;;;;;27.52;49.98;101003.25;5073709;28;20060;-75
2022/07/22 01:04:27;;;;;;;5.30;3.42;;;;;;;27.52;49.51;101009.53;5072630;28;20397;-76
2022/07/22 01:06:55;;;;;;;7.07;3.47;;;;;;;27.52;49.76;101006.81;5071996;28;20048;-75
2022/07/22 01:09:22;;;;;;;4.50;3.50;;;;;;;27.53;49.92;101000.34;5072725;28;20044;-75
2022/07/22 01:11:50;;;;;;;4.63;3.20;;;;;;;27.53;49.99;101005.78;5073253;28;20049;-76
2022/07/22 01:14:18;;;;;;;4.15;3.30;;;;;;;27.54;50.16;101004.75;5071722;28;20052;-75
2022/07/22 01:16:45;;;;;;;5.53;3.35;;;;;;;27.54;50.13;101002.03;5071742;28;20052;-76
2022/07/22 01:19:16;;;;;;;5.82;3.30;;;;;;;27.54;49.82;101002.03;5072069;28;20045;-76
2022/07/22 01:21:44;;;;;;;4.60;3.38;;;;;;;27.56;49.77;101004.56;5075787;28;20048;-76
2022/07/22 01:24:14;;;;;;;5.22;3.40;;;;;;;27.56;50.15;101002.69;5075168;28;20443;-76
2022/07/22 01:26:41;;;;;;;4.43;2.70;;;;;;;27.57;49.99;101001.66;5075659;28;20064;-76
2022/07/22 01:29:10;;;;;;;3.55;3.20;;;;;;;27.57;49.81;101001.66;5075571;28;20051;-75
2022/07/22 01:31:37;;;;;;;5.60;3.15;;;;;;;27.59;50.27;101006.94;5076767;28;20052;-75
2022/07/22 01:34:05;;;;;;;3.97;3.38;;;;;;;27.59;49.99;101007.78;5075625;28;20048;-75
2022/07/22 01:36:35;;;;;;;4.03;2.97;;;;;;;27.60;50.15;101003.19;5074792;28;20060;-75
2022/07/22 01:39:03;;;;;;;8.10;3.42;;;;;;;27.60;50.17;101005.91;5076438;28;20048;-75
2022/07/22 01:41:30;;;;;;;4.55;3.30;;;;;;;27.60;50.13;101004.03;5074907;28;20064;-75
2022/07/22 01:43:58;;;;;;;4.55;3.38;;;;;;;27.60;50.33;100995.88;5074667;28;20048;-75
2022/07/22 01:46:25;;;;;;;4.85;3.20;;;;;;;27.61;50.16;100994.81;5091134;28;20055;-75
2022/07/22 01:48:54;;;;;;;3.85;3.45;;;;;;;27.61;50.14;100999.44;5075031;28;20048;-75
2022/07/22 01:51:22;;;;;;;4.65;3.15;;;;;;;27.63;50.37;101004.69;5075008;28;20064;-75
2022/07/22 01:53:49;;;;;;;4.10;3.17;;;;;;;27.64;50.37;101006.38;5075262;28;20048;-75
2022/07/22 01:56:17;;;;;;;4.90;3.60;;;;;;;27.64;50.38;101006.38;5074780;28;20049;-75
2022/07/22 01:58:48;;;;;;;5.33;3.63;;;;;;;27.64;50.53;101003.66;5074816;28;20488;-75
2022/07/22 02:01:21;;;;;;;4.15;3.10;;;;;;;27.66;50.45;101004.31;5074866;28;20044;-76
2022/07/22 02:03:48;;;;;;;4.88;3.17;;;;;;;27.65;50.33;101008.91;5076140;28;20044;-76
2022/07/22 02:06:16;;;;;;;6.57;3.22;;;;;;;27.67;50.22;101008.72;5074425;28;20052;-76
2022/07/22 02:08:44;;;;;;;5.82;3.88;;;;;;;27.66;50.67;101005.16;5074886;28;20048;-75
2022/07/22 02:11:19;;;;;;;4.00;3.30;;;;;;;27.67;50.56;101008.72;5074795;28;20052;-75
2022/07/22 02:13:53;;;;;;;5.70;3.28;;;;;;;27.67;50.22;101012.31;5074477;28;20056;-76
2022/07/22 02:16:21;;;;;;;4.22;3.15;;;;;;;27.68;50.31;101007.72;5075640;28;20053;-76
2022/07/22 02:18:50;;;;;;;5.30;3.50;;;;;;;27.67;50.32;101009.59;5091528;28;20048;-76
2022/07/22 02:21:18;;;;;;;5.38;4.03;;;;;;;27.68;50.46;101005.00;5074604;28;20075;-76
2022/07/22 02:23:52;;;;;;;4.85;3.47;;;;;;;27.68;50.40;101007.72;5074423;28;20060;-75
2022/07/22 02:26:19;;;;;;;3.58;3.00;;;;;;;27.69;50.35;101009.41;5074329;28;20060;-75
2022/07/22 02:28:46;;;;;;;5.10;3.35;;;;;;;27.69;50.57;101012.13;5074420;28;20049;-76
2022/07/22 02:31:14;;;;;;;5.97;3.60;;;;;;;27.69;50.29;101010.25;5074204;28;20056;-76
2022/07/22 02:33:41;;;;;;;5.22;3.50;;;;;;;27.70;50.71;101008.38;5075939;28;20036;-76
2022/07/22 02:36:10;;;;;;;3.50;3.20;;;;;;;27.70;50.63;101006.47;5075144;28;20404;-76
2022/07/22 02:38:38;;;;;;;4.00;3.22;;;;;;;27.71;50.47;101013.63;5074005;28;20119;-76
2022/07/22 02:41:05;;;;;;;4.22;3.40;;;;;;;27.71;50.69;101013.63;5073386;28;20135;-75
2022/07/22 02:43:35;;;;;;;4.35;3.53;;;;;;;27.71;50.59;101010.91;5073544;28;20056;-75
2022/07/22 02:46:02;;;;;;;4.88;3.40;;;;;;;27.71;50.47;101013.63;5073731;28;20057;-75
2022/07/22 02:48:30;;;;;;;3.55;3.20;;;;;;;27.72;50.69;101009.03;5074721;28;20040;-75
2022/07/22 02:50:58;;;;;;;4.88;3.42;;;;;;;27.73;50.78;101010.72;5073898;28;20044;-75
2022/07/22 02:53:28;;;;;;;5.75;3.33;;;;;;;27.73;50.61;101006.16;5073317;28;20056;-76
2022/07/22 02:55:57;;;;;;;3.72;3.25;;;;;;;27.73;50.43;101008.88;5073550;28;20507;-75
2022/07/22 02:58:25;;;;;;;5.60;3.40;;;;;;;27.73;50.69;101006.16;5075119;28;20048;-75
2022/07/22 03:00:52;;;;;;;3.67;3.03;;;;;;;27.73;50.73;101011.59;5073676;28;20106;-75
2022/07/22 03:03:20;;;;;;;4.68;3.42;;;;;;;27.73;50.62;101011.59;5073275;28;20063;-75
2022/07/22 03:05:48;;;;;;;4.20;3.28;;;;;;;27.73;50.99;101008.00;5073637;28;20500;-75
2022/07/22 03:08:32;;;;;;;5.80;4.03;;;;;;;27.72;51.05;101009.88;5073816;28;20401;-75
2022/07/22 03:11:00;;;;;;;5.75;4.10;;;;;;;27.72;51.07;101014.47;5073422;28;20044;-75
2022/07/22 03:13:27;;;;;;;5.18;3.78;;;;;;;27.72;51.12;101009.88;5074651;28;20040;-74
2022/07/22 03:15:54;;;;;;;5.65;3.67;;;;;;;27.71;50.70;101013.63;5075231;28;20048;-75
2022/07/22 03:18:22;;;;;;;5.22;3.45;;;;;;;27.72;51.19;101014.47;5073777;28;20052;-75
2022/07/22 03:20:50;;;;;;;6.38;4.00;;;;;;;27.71;51.02;101010.03;5074288;28;20047;-75
2022/07/22 03:23:17;;;;;;;4.07;3.58;;;;;;;27.71;51.44;101012.75;5072394;28;20052;-75
2022/07/22 03:25:44;;;;;;;6.47;3.65;;;;;;;27.71;51.33;101013.63;5073129;28;20048;-74
2022/07/22 03:28:12;;;;;;;5.57;3.60;;;;;;;27.71;51.26;101020.94;5073498;28;20053;-74
2022/07/22 03:30:39;;;;;;;4.53;3.30;;;;;;;27.70;51.29;101017.38;5074860;28;20043;-75
2022/07/22 03:33:07;;;;;;;5.43;4.00;;;;;;;27.70;51.10;101022.81;5073248;28;20052;-75
2022/07/22 03:35:39;;;;;;;5.63;4.20;;;;;;;27.71;51.24;101026.38;5072957;28;20044;-74
2022/07/22 03:38:07;;;;;;;4.63;3.55;;;;;;;27.71;51.59;101023.66;5073039;28;20045;-75
2022/07/22 03:40:36;;;;;;;5.68;3.58;;;;;;;27.70;51.44;101027.41;5072671;28;20493;-75
2022/07/22 03:43:04;;;;;;;5.05;3.72;;;;;;;27.71;51.35;101026.38;5072923;28;20063;-75
2022/07/22 03:45:34;;;;;;;4.85;3.67;;;;;;;27.70;51.30;101027.41;5073193;28;20049;-74
2022/07/22 03:48:01;;;;;;;5.40;3.42;;;;;;;27.71;51.08;101031.81;5072964;28;20056;-75
2022/07/22 03:50:35;;;;;;;4.72;4.05;;;;;;;27.70;51.13;101030.97;5089035;28;20044;-75
2022/07/22 03:53:03;;;;;;;4.65;3.60;;;;;;;27.71;51.44;101029.97;5089426;28;20044;-75
2022/07/22 03:55:32;;;;;;;5.45;4.13;;;;;;;27.71;51.57;101024.53;5072600;28;20052;-75
2022/07/22 03:58:00;;;;;;;5.90;3.83;;;;;;;27.70;51.32;101022.81;5056095;28;20048;-75
2022/07/22 04:00:29;;;;;;;5.18;3.70;;;;;;;27.72;51.06;101028.09;5072288;28;20045;-75
2022/07/22 04:02:59;;;;;;;4.53;3.70;;;;;;;27.71;51.08;101032.69;5073210;28;20056;-75
2022/07/22 04:05:41;;;;;;;4.53;4.13;;;;;;;27.72;51.47;101030.81;5080699;28;20048;-75
2022/07/22 04:08:09;;;;;;;6.20;3.92;;;;;;;27.73;51.10;101040.66;5072402;28;20127;-75
2022/07/22 04:10:37;;;;;;;5.10;3.63;;;;;;;27.72;51.08;101042.53;5073404;28;20384;-75
2022/07/22 04:13:04;;;;;;;5.82;4.00;;;;;;;27.72;51.03;101039.81;5072560;28;20064;-75
2022/07/22 04:15:57;;;;;;;7.88;4.63;;;;;;;27.73;51.15;101043.38;5071369;28;20059;-75
2022/07/22 04:18:30;;;;;;;6.45;4.55;;;;;;;27.72;51.06;101045.25;5089311;28;20052;-75
2022/07/22 04:20:57;;;;;;;5.55;3.90;;;;;;;27.73;50.82;101043.38;5073874;28;20481;-75
2022/07/22 04:23:34;;;;;;;5.20;4.20;;;;;;;27.72;50.85;101038.97;5072564;28;20439;-75
2022/07/22 04:26:24;;;;;;;4.72;3.80;;;;;;;27.73;50.67;101032.47;5074024;28;20059;-75
2022/07/22 04:28:52;;;;;;;4.60;4.10;;;;;;;27.72;50.90;101042.53;5072413;28;20052;-75
2022/07/22 04:31:21;;;;;;;6.60;3.95;;;;;;;27.73;50.63;101051.53;5072785;28;20493;-75
2022/07/22 04:33:55;;;;;;;4.60;4.00;;;;;;;27.73;50.85;101043.38;5072384;28;20056;-75
2022/07/22 04:36:22;;;;;;;5.13;3.88;;;;;;;27.73;50.86;101048.81;5072262;28;20056;-75
2022/07/22 04:38:52;;;;;;;5.00;4.03;;;;;;;27.73;50.67;101046.97;5072534;28;20492;-75
2022/07/22 04:41:20;;;;;;;5.95;4.32;;;;;;;27.72;50.68;101052.56;5072131;28;20048;-75
2022/07/22 04:43:49;;;;;;;6.32;4.50;;;;;;;27.73;50.85;101048.81;5071848;28;20052;-75
2022/07/22 04:46:16;;;;;;;4.68;4.00;;;;;;;27.74;50.48;101050.53;5088475;28;20448;-74
2022/07/22 04:48:44;;;;;;;5.85;4.60;;;;;;;27.74;50.50;101055.97;5071706;28;20491;-75
2022/07/22 04:51:12;;;;;;;6.90;3.97;;;;;;;27.74;50.71;101056.81;5072345;28;20059;-75
2022/07/22 04:53:42;;;;;;;5.78;5.03;;;;;;;27.74;50.59;101056.81;5072494;28;20049;-75
2022/07/22 04:56:17;;;;;;;9.18;5.10;;;;;;;27.73;50.76;101055.13;5075239;28;20495;-75
2022/07/22 04:58:45;;;;;;;7.95;4.15;;;;;;;27.73;50.42;101060.56;5075517;28;20053;-75
2022/07/22 05:01:13;;;;;;;8.13;4.40;;;;;;;27.74;50.78;101059.53;5075730;28;20044;-74
2022/07/22 05:03:42;;;;;;;5.40;4.30;;;;;;;27.75;51.15;101058.53;5076163;28;20515;-75
2022/07/22 05:06:12;;;;;;;5.97;4.32;;;;;;;27.76;50.78;101067.53;5075618;28;20052;-75
2022/07/22 05:08:43;;;;;;;6.68;4.30;;;;;;;27.76;50.84;101064.81;5076103;28;20602;-75
2022/07/22 05:11:11;;;;;;;5.10;4.25;;;;;;;27.76;50.98;101064.81;5078277;28;20040;-75
2022/07/22 05:13:39;;;;;;;5.75;4.22;;;;;;;27.76;50.76;101065.66;5075195;28;20056;-75
2022/07/22 05:16:08;;;;;;;6.18;4.20;;;;;;;27.77;50.62;101061.03;5075375;28;20048;-75
2022/07/22 05:18:37;;;;;;;6.40;4.00;;;;;;;27.77;50.55;101061.03;5074948;28;20413;-74
2022/07/22 05:21:06;;;;;;;6.88;4.57;;;;;;;27.77;50.78;101071.94;5075227;28;20051;-75
2022/07/22 05:23:34;;;;;;;7.10;4.32;;;;;;;27.77;50.73;101066.50;5075535;28;20044;-75
2022/07/22 05:26:04;;;;;;;6.30;4.47;;;;;;;27.78;50.84;101057.28;5075839;28;20060;-75
2022/07/22 05:28:33;;;;;;;9.00;4.43;;;;;;;27.78;50.56;101065.44;5077206;28;20515;-75
2022/07/22 05:31:01;;;;;;;6.18;4.63;;;;;;;27.79;50.62;101069.84;5092462;28;20044;-75
2022/07/22 05:33:30;;;;;;;8.20;5.10;;;;;;;27.79;50.61;101062.56;5059338;28;20058;-75
2022/07/22 05:36:27;;;;;;;7.93;5.13;;;;;;;27.78;50.65;101069.00;5064010;28;20049;-75
2022/07/22 05:38:55;;;;;;;7.68;4.80;;;;;;;27.79;50.92;101067.13;5075417;28;20396;-75
2022/07/22 05:41:23;;;;;;;5.15;4.18;;;;;;;27.80;50.72;101066.13;5076391;28;20071;-75
2022/07/22 05:43:53;;;;;;;5.80;4.10;;;;;;;27.80;50.87;101071.56;5075876;28;20408;-75
2022/07/22 05:46:20;;;;;;;6.40;5.00;;;;;;;27.81;50.91;101063.22;5076254;28;20412;-75
2022/07/22 05:48:48;;;;;;;5.40;4.22;;;;;;;27.81;50.99;101062.38;5075345;28;20049;-75
2022/07/22 05:51:16;;;;;;;9.73;5.05;;;;;;;27.82;50.77;101069.50;5075549;28;20492;-75
2022/07/22 05:53:44;;;;;;;5.47;4.78;;;;;;;27.81;50.78;101065.09;5074977;28;20048;-75
2022/07/22 05:56:13;;;;;;;5.55;4.53;;;;;;;27.82;50.35;101072.22;5075240;28;20053;-75
2022/07/22 05:58:41;;;;;;;5.55;4.63;;;;;;;27.82;50.59;101070.34;5076084;28;20064;-75
2022/07/22 06:01:11;;;;;;;5.88;4.40;;;;;;;27.83;50.90;101073.91;5092172;28;20052;-75
2022/07/22 06:03:40;;;;;;;5.50;4.75;;;;;;;27.82;51.03;101067.63;5074221;28;20059;-75
2022/07/22 06:06:08;;;;;;;6.00;4.75;;;;;;;27.83;50.63;101071.19;5075580;28;20519;-75
2022/07/22 06:08:36;;;;;;;5.30;4.47;;;;;;;27.84;50.67;101073.75;5074328;28;20048;-75
2022/07/22 06:11:04;;;;;;;8.05;4.40;;;;;;;27.83;50.69;101072.06;5074872;28;20053;-75
2022/07/22 06:13:33;;;;;;;5.35;4.30;;;;;;;27.83;50.62;101077.50;5058297;28;20064;-75
2022/07/22 06:16:01;;;;;;;5.30;4.30;;;;;;;27.84;50.72;101078.34;5074101;28;20515;-75
2022/07/22 06:18:29;;;;;;;5.57;3.95;;;;;;;27.85;50.65;101080.03;5074540;28;20508;-75
2022/07/22 06:20:57;;;;;;;4.70;3.90;;;;;;;27.85;50.58;101082.75;5091328;28;20048;-75
2022/07/22 06:23:25;;;;;;;5.75;4.13;;;;;;;27.85;50.33;101082.75;5075185;28;20056;-75
2022/07/22 06:25:53;;;;;;;4.88;4.38;;;;;;;27.85;50.28;101077.31;5074281;28;20055;-75
2022/07/22 06:28:28;;;;;;;5.75;4.72;;;;;;;27.86;50.18;101079.00;5074526;28;20052;-75
2022/07/22 06:30:56;;;;;;;4.43;3.78;;;;;;;27.87;50.36;101083.41;5073453;28;20226;-75
2022/07/22 06:33:24;;;;;;;5.43;4.30;;;;;;;27.87;50.17;101077.94;5073291;28;20052;-75
2022/07/22 06:35:52;;;;;;;4.93;4.40;;;;;;;27.87;50.09;101083.41;5073827;28;20404;-74
2022/07/22 06:38:19;;;;;;;5.82;4.25;;;;;;;27.88;50.24;101090.56;5074421;28;20055;-75
2022/07/22 06:41:38;;;;;;;4.85;3.88;;;;;;;27.89;50.42;101089.53;5066567;28;20060;-75
2022/07/22 06:44:05;;;;;;;5.90;4.30;;;;;;;27.89;49.67;101092.25;5075475;28;20424;-77
2022/07/22 06:46:33;;;;;;;5.70;5.15;;;;;;;27.87;47.50;101090.72;5076102;28;20358;-76
2022/07/22 06:49:02;;;;;;;6.88;4.93;;;;;;;27.84;46.94;101087.34;5090104;28;20056;-77
2022/07/22 06:51:33;;;;;;;9.60;5.30;;;;;;;27.82;45.20;101085.81;5076536;28;20049;-79
2022/07/22 06:54:01;;;;;;;8.65;4.80;;;;;;;27.80;44.94;101093.34;5094381;28;20051;-75
2022/07/22 06:56:28;;;;;;;7.05;5.07;;;;;;;27.79;44.56;101097.94;5077446;28;20059;-76
2022/07/22 06:58:56;;;;;;;6.38;4.63;;;;;;;27.79;44.42;101097.94;5077780;28;20052;-76
2022/07/22 07:01:25;;;;;;;7.22;4.78;;;;;;;27.78;44.31;101101.66;5093421;28;20051;-76
2022/07/22 07:03:54;;;;;;;6.72;4.82;;;;;;;27.76;43.17;101100.16;5094341;28;20400;-76
2022/07/22 07:06:21;;;;;;;7.75;4.60;;;;;;;27.78;42.58;101108.97;5093104;28;20395;-77
2022/07/22 07:09:12;;;;;;;8.10;4.80;;;;;;;27.77;42.75;101105.41;5067235;28;20527;-76
2022/07/22 07:11:41;;;;;;;7.90;5.00;;;;;;;27.78;42.33;101100.81;5093270;28;20055;-76
2022/07/22 07:14:16;;;;;;;5.47;4.40;;;;;;;27.79;42.56;101107.94;5093395;28;20052;-78
2022/07/22 07:16:44;;;;;;;5.00;4.50;;;;;;;27.80;42.19;101105.06;5093290;28;20067;-79
2022/07/22 07:19:12;;;;;;;6.22;4.47;;;;;;;27.81;43.35;101112.19;5093322;28;20055;-79
2022/07/22 07:21:39;;;;;;;6.40;5.00;;;;;;;27.83;44.06;101106.56;5093543;28;20048;-76
2022/07/22 07:24:06;;;;;;;10.32;5.38;;;;;;;27.84;44.76;101103.66;5093580;28;20052;-78
2022/07/22 07:26:35;;;;;;;5.82;5.00;;;;;;;27.87;44.71;101105.16;5093051;28;20415;-75
2022/07/22 07:29:03;;;;;;;11.18;4.97;;;;;;;27.87;44.82;101098.88;5092635;28;20435;-80
2022/07/22 07:31:33;;;;;;;5.43;4.55;;;;;;;27.87;43.79;101097.00;5093433;28;20059;-77
2022/07/22 07:34:04;;;;;;;6.32;5.07;;;;;;;27.90;43.72;101104.81;5093612;28;20048;-78
2022/07/22 07:36:32;;;;;;;7.45;4.85;;;;;;;27.90;42.79;101098.53;5094543;28;20052;-79
2022/07/22 07:38:59;;;;;;;7.97;5.25;;;;;;;27.90;42.85;101101.25;5094483;28;20427;-80
2022/07/22 07:41:28;;;;;;;8.07;5.30;;;;;;;27.89;41.72;101102.28;5094050;28;20510;-78
2022/07/22 07:43:55;;;;;;;6.53;5.07;;;;;;;27.91;42.13;101108.38;5093008;28;20553;-74
2022/07/22 07:46:23;;;;;;;8.77;5.53;;;;;;;27.92;42.80;101102.75;5092738;28;20043;-79
2022/07/22 07:48:51;;;;;;;6.18;5.07;;;;;;;27.94;42.25;101106.13;5093375;28;20500;-79
2022/07/22 07:51:19;;;;;;;5.72;5.10;;;;;;;27.93;41.96;101112.63;5093579;28;20048;-77
2022/07/22 07:53:47;;;;;;;7.57;5.03;;;;;;;27.95;42.25;101109.69;5093335;28;20511;-81
2022/07/22 07:56:14;;;;;;;6.40;5.65;;;;;;;27.95;42.25;101105.09;5093369;28;20480;-81
2022/07/22 07:58:43;;;;;;;5.72;4.90;;;;;;;27.96;42.30;101109.53;5094252;28;20476;-81
2022/07/22 08:02:06;;;;;;;5.32;4.75;;;;;;;27.98;42.25;101112.06;5095827;28;20435;-83
2022/07/22 08:04:36;;;;;;;7.25;5.20;;;;;;;27.99;42.33;101117.31;5094247;28;20040;-81
2022/07/22 08:07:16;;;;;;;8.27;5.18;;;;;;;27.99;42.40;101111.03;5093731;28;20063;-79
2022/07/22 08:09:45;;;;;;;8.07;5.82;;;;;;;28.00;42.67;101118.19;5093872;28;20392;-79
2022/07/22 08:12:26;;;;;;;5.30;4.78;;;;;;;28.01;42.79;101112.53;5093392;28;20055;-78
2022/07/22 08:15:12;;;;;;;7.00;5.35;;;;;;;28.02;42.82;101114.22;5101503;28;20063;-79
2022/07/22 08:17:52;;;;;;;6.05;5.13;;;;;;;28.03;42.95;101110.47;5093351;28;20056;-77
2022/07/22 08:20:22;;;;;;;6.35;5.65;;;;;;;28.04;42.99;101111.34;5093029;28;20048;-78
2022/07/22 08:22:51;;;;;;;6.43;5.65;;;;;;;28.05;43.11;101107.59;5094879;28;20044;-77
2022/07/22 08:25:19;;;;;;;6.38;5.10;;;;;;;28.05;43.06;101113.88;5076221;28;20044;-80
2022/07/22 08:27:47;;;;;;;6.97;5.63;;;;;;;28.07;43.25;101110.97;5092842;28;20059;-82
2022/07/22 08:30:16;;;;;;;6.78;5.13;;;;;;;28.06;42.74;101107.41;5093058;28;20063;-80
2022/07/22 08:32:44;;;;;;;8.27;5.60;;;;;;;28.09;43.30;101109.75;5096620;28;20044;-83
2022/07/22 08:35:11;;;;;;;6.30;5.70;;;;;;;28.10;43.81;101116.03;5097032;28;20048;-79
2022/07/22 08:37:39;;;;;;;11.45;5.57;;;;;;;28.10;43.37;101106.00;5097054;28;20048;-80
2022/07/22 08:40:07;;;;;;;6.97;5.20;;;;;;;28.12;43.60;101113.16;5096056;28;20064;-80
2022/07/22 08:42:39;;;;;;;5.78;4.90;;;;;;;28.12;43.63;101114.00;5096581;28;20483;-83
2022/07/22 08:45:08;;;;;;;7.60;5.75;;;;;;;28.13;43.47;101109.41;5096650;28;20059;-78
2022/07/22 08:47:49;;;;;;;10.80;5.70;;;;;;;28.14;43.84;101108.34;5096091;28;20052;-81
2022/07/22 08:50:39;;;;;;;6.40;4.85;;;;;;;28.15;44.17;101112.78;5096373;28;20478;-84
2022/07/22 08:53:18;;;;;;;9.43;5.45;;;;;;;28.16;44.04;101115.31;5089853;28;20495;-79
2022/07/22 08:55:48;;;;;;;6.85;5.20;;;;;;;28.16;44.45;101115.31;5075650;28;20048;-78
2022/07/22 08:58:17;;;;;;;6.75;5.30;;;;;;;28.18;44.20;101120.56;5076456;28;20416;-80
2022/07/22 09:00:44;;;;;;;5.97;5.38;;;;;;;28.18;44.22;101118.69;5076440;28;20048;-79
2022/07/22 09:03:27;;;;;;;9.85;5.80;;;;;;;28.19;44.43;101117.66;5077920;28;20059;-83
2022/07/22 09:05:59;;;;;;;8.35;5.88;;;;;;;28.19;44.89;101117.66;5076041;28;20067;-79
2022/07/22 09:08:26;;;;;;;8.73;5.25;;;;;;;28.19;44.67;101114.94;5077881;28;20045;-81
2022/07/22 09:11:23;;;;;;;7.53;5.50;;;;;;;28.22;44.76;101119.19;5076357;28;20063;-80
2022/07/22 09:14:09;;;;;;;6.90;5.67;;;;;;;28.23;45.11;101109.97;5084546;28;20051;-82
2022/07/22 09:17:02;;;;;;;5.72;5.13;;;;;;;28.23;45.06;101105.38;5075142;28;20064;-83
2022/07/22 09:19:38;;;;;;;5.80;5.03;;;;;;;28.24;45.08;101106.25;5076424;28;20056;-80
2022/07/22 09:22:35;;;;;;;7.07;5.45;;;;;;;28.24;45.23;101101.63;5084114;28;20051;-79
2022/07/22 09:25:25;;;;;;;6.10;5.38;;;;;;;28.25;44.91;101103.31;5076500;28;20420;-81
2022/07/22 09:28:14;;;;;;;6.35;5.70;;;;;;;28.26;44.88;101099.56;5083401;28;20063;-79
2022/07/22 09:31:02;;;;;;;6.97;6.03;;;;;;;28.27;45.16;101100.41;5083779;28;20075;-75
2022/07/22 09:33:34;;;;;;;6.53;5.18;;;;;;;28.27;45.08;101094.97;5075982;28;20049;-78
2022/07/22 09:36:22;;;;;;;8.27;5.72;;;;;;;28.28;45.48;101096.69;5076022;28;20057;-75
2022/07/22 09:38:51;;;;;;;6.38;5.60;;;;;;;28.29;45.42;101087.47;5075567;28;20052;-77
2022/07/22 09:41:20;;;;;;;6.10;5.35;;;;;;;28.30;45.28;101087.28;5074945;28;20056;-77
2022/07/22 09:43:50;;;;;;;6.32;5.40;;;;;;;28.30;45.58;101090.00;5075987;28;20044;-78
2022/07/22 09:46:33;;;;;;;6.57;5.97;;;;;;;28.30;45.38;101078.25;5074882;28;20055;-77
2022/07/22 09:49:34;;;;;;;5.65;5.15;;;;;;;28.31;45.50;101085.38;5075197;28;20052;-77
2022/07/22 09:52:20;;;;;;;6.03;5.38;;;;;;;28.31;45.78;101077.22;5083965;28;20060;-79
2022/07/22 09:55:06;;;;;;;6.20;5.60;;;;;;;28.33;45.65;101077.91;5076691;28;20040;-77
2022/07/22 09:57:37;;;;;;;6.88;5.13;;;;;;;28.33;45.51;101069.72;5074374;28;20049;-80
2022/07/22 10:00:09;;;;;;;6.35;5.75;;;;;;;28.34;45.56;101065.97;5057766;28;20048;-76
2022/07/22 10:02:49;;;;;;;8.35;5.63;;;;;;;28.35;46.04;101070.38;5074452;28;20052;-77
2022/07/22 10:05:21;;;;;;;8.15;5.82;;;;;;;28.35;45.97;101064.94;5074119;28;20056;-80
2022/07/22 10:07:49;;;;;;;8.60;5.68;;;;;;;28.36;46.11;101063.94;5073786;28;20432;-79
2022/07/22 10:10:27;;;;;;;5.72;5.20;;;;;;;28.37;46.07;101057.47;5057483;28;20519;-79
2022/07/22 10:12:56;;;;;;;10.63;5.50;;;;;;;28.37;46.11;101060.19;5074168;28;20040;-79
2022/07/22 10:15:25;;;;;;;6.95;5.80;;;;;;;28.38;46.14;101056.44;5074065;28;20052;-78
2022/07/22 10:18:13;;;;;;;5.70;4.80;;;;;;;28.39;45.96;101052.66;5073201;28;20056;-77
2022/07/22 10:20:41;;;;;;;5.97;4.78;;;;;;;28.39;46.20;101047.22;5074152;28;20055;-80
2022/07/22 10:23:11;;;;;;;5.38;4.88;;;;;;;28.40;46.41;101048.94;5073786;28;20044;-76
2022/07/22 10:25:52;;;;;;;6.10;5.18;;;;;;;28.41;46.42;101047.06;5073365;28;20049;-77
2022/07/22 10:28:41;;;;;;;7.22;5.70;;;;;;;28.42;46.40;101038.69;5073480;28;20059;-77
2022/07/22 10:31:24;;;;;;;6.70;5.50;;;;;;;28.41;46.49;101039.72;5075050;28;20055;-78
2022/07/22 10:33:56;;;;;;;6.43;5.65;;;;;;;28.42;46.31;101038.69;5083912;28;20048;-75
2022/07/22 10:36:34;;;;;;;6.57;5.43;;;;;;;28.43;46.16;101039.53;5095071;28;20044;-76
2022/07/22 10:39:13;;;;;;;6.35;5.63;;;;;;;28.44;46.63;101038.47;5093443;28;20056;-77
2022/07/22 10:41:45;;;;;;;7.28;6.07;;;;;;;28.44;46.12;101036.63;5095330;28;20387;-79
2022/07/22 10:44:47;;;;;;;6.00;5.50;;;;;;;28.46;46.76;101040.00;5093831;28;20048;-77
2022/07/22 10:48:07;;;;;;;7.05;5.90;;;;;;;28.47;46.53;101032.66;5095354;28;20048;-77
2022/07/22 10:50:38;;;;;;;7.90;6.03;;;;;;;28.47;46.78;101030.78;5012637;28;20053;-76
2022/07/22 10:53:37;;;;;;;6.38;5.78;;;;;;;28.47;46.89;101025.34;4995727;28;20050;-78
2022/07/22 10:56:38;;;;;;;6.10;5.50;;;;;;;28.48;47.08;101026.19;4916396;29;20067;-78
2022/07/22 10:59:19;;;;;;;7.68;5.43;;;;;;;28.49;47.01;101026.00;4876720;29;20056;-77
2022/07/22 11:01:50;;;;;;;9.20;7.05;;;;;;;28.51;47.02;101026.66;4916266;29;20064;-79
2022/07/22 11:04:23;;;;;;;;;;;;;;;28.51;47.28;101026.66;4917068;29;20059;-77
2022/07/22 11:06:53;;;;;;;6.60;5.95;;;;;;;28.52;47.16;101025.66;4916436;29;19928;-80
2022/07/22 11:09:23;;;;;;;10.60;6.28;;;;;;;28.53;47.37;101021.03;4916009;29;20060;-78
2022/07/22 11:11:56;;;;;;;9.73;6.28;;;;;;;28.55;47.42;101021.69;4916067;29;20075;-77
2022/07/22 11:14:27;;;;;;;6.65;5.90;;;;;;;28.55;47.44;101016.22;4916182;29;20161;-77
2022/07/22 11:17:14;;;;;;;5.95;5.45;;;;;;;28.53;47.47;101013.72;4916293;29;20146;-77
2022/07/22 11:19:41;;;;;;;6.65;5.97;;;;;;;28.55;47.62;101014.34;4915659;29;20071;-76
2022/07/22 11:22:12;;;;;;;8.93;6.63;;;;;;;28.56;47.31;101015.19;4996028;28;20057;-76
2022/07/22 11:24:41;;;;;;;8.48;5.60;;;;;;;28.55;47.55;101014.34;5012659;28;20061;-76
2022/07/22 11:27:16;;;;;;;8.43;6.07;;;;;;;28.56;47.81;101010.63;5012015;28;20053;-77
2022/07/22 11:29:52;;;;;;;6.53;5.82;;;;;;;28.55;47.74;101011.63;5011806;28;20045;-77
2022/07/22 11:32:21;;;;;;;6.32;5.82;;;;;;;28.57;47.50;101011.47;5070219;28;20523;-77
2022/07/22 11:34:56;;;;;;;8.05;6.53;;;;;;;28.56;47.54;100999.72;5092119;28;20056;-77
2022/07/22 11:37:26;;;;;;;6.90;6.18;;;;;;;28.58;47.31;101003.09;5093859;28;20059;-77
2022/07/22 11:40:01;;;;;;;7.00;6.20;;;;;;;28.57;47.37;101000.56;5093540;28;20051;-77
2022/07/22 11:42:29;;;;;;;6.88;6.18;;;;;;;28.58;47.44;101002.25;5094122;28;20055;-77
2022/07/22 11:44:58;;;;;;;9.13;5.50;;;;;;;28.56;47.02;100999.72;5094047;28;20058;-77